Time;durP1;ratioP1;P1;durP2;ratioP2;P2;SDS_P1;SDS_P2;PMS_P1;PMS_P2;Temp;Humidity;BMP_temperature;BMP_pressure;BME280_temperature;BME280_humidity;BME280_pressure;Samples;Min_cycle;Max_cycle;Signal;HPM_P1;HPM_P2
2022/04/29 00:00:52;;;;;;;6.47;4.70;;;;;;;;;;5056764;28;20193;-68
2022/04/29 00:03:21;;;;;;;7.03;3.75;;;;;;;;;;5056775;28;20222;-68
2022/04/29 00:05:48;;;;;;;6.70;3.53;;;;;;;;;;5056336;28;20191;-67
2022/04/29 00:08:16;;;;;;;8.98;4.78;;;;;;;;;;5056977;28;20298;-67
2022/04/29 00:10:44;;;;;;;9.35;4.35;;;;;;;;;;5056669;28;20201;-67
2022/04/29 00:13:13;;;;;;;5.57;3.80;;;;;;;;;;5056668;28;20202;-68
2022/04/29 00:15:40;;;;;;;5.43;4.22;;;;;;;;;;5056560;28;20194;-68
2022/04/29 00:18:09;;;;;;;7.15;4.07;;;;;;;;;;5056515;28;20197;-68
2022/04/29 00:20:36;;;;;;;6.20;3.97;;;;;;;;;;5056605;28;20211;-67
2022/04/29 00:23:03;;;;;;;18.35;5.25;;;;;;;;;;5056387;28;20216;-68
2022/04/29 00:25:31;;;;;;;8.77;4.97;;;;;;;;;;5056516;28;20195;-68
2022/04/29 00:27:58;;;;;;;8.10;4.55;;;;;;;;;;5056295;28;20210;-68
2022/04/29 00:30:25;;;;;;;6.85;4.65;;;;;;;;;;5056427;28;20205;-67
2022/04/29 00:32:52;;;;;;;4.63;4.20;;;;;;;;;;5056286;28;20204;-68
2022/04/29 00:35:21;;;;;;;7.03;5.20;;;;;;;;;;5056178;28;20199;-67
2022/04/29 00:37:49;;;;;;;9.50;4.97;;;;;;;;;;5056151;28;20241;-69
2022/04/29 00:40:16;;;;;;;8.23;4.25;;;;;;;;;;5056029;28;20555;-68
2022/04/29 00:42:45;;;;;;;15.52;5.10;;;;;;;;;;5055707;28;20220;-68
2022/04/29 00:45:12;;;;;;;6.68;4.43;;;;;;;;;;5055973;28;20606;-68
2022/04/29 00:47:39;;;;;;;8.00;5.05;;;;;;;;;;5055943;28;20194;-68
2022/04/29 00:50:07;;;;;;;6.38;5.05;;;;;;;;;;5055595;28;20203;-68
2022/04/29 00:52:37;;;;;;;13.27;5.10;;;;;;;;;;5056025;28;20202;-68
2022/04/29 00:55:08;;;;;;;9.13;4.93;;;;;;;;;;5055516;28;20204;-68
2022/04/29 00:57:43;;;;;;;8.38;4.72;;;;;;;;;;5055577;28;20191;-68
2022/04/29 01:00:11;;;;;;;9.02;5.45;;;;;;;;;;5056322;28;20185;-68
2022/04/29 01:02:41;;;;;;;8.73;5.28;;;;;;;;;;5055253;28;20308;-68
2022/04/29 01:05:09;;;;;;;11.00;5.85;;;;;;;;;;5055491;28;20608;-68
2022/04/29 01:07:38;;;;;;;8.10;5.85;;;;;;;;;;5055235;28;20202;-68
2022/04/29 01:10:07;;;;;;;12.35;6.10;;;;;;;;;;5055570;28;20547;-67
2022/04/29 01:12:35;;;;;;;12.52;7.95;;;;;;;;;;5055130;28;20728;-67
2022/04/29 01:15:04;;;;;;;8.07;6.60;;;;;;;;;;5055386;28;20289;-68
2022/04/29 01:17:31;;;;;;;14.48;6.40;;;;;;;;;;5055282;28;20199;-68
2022/04/29 01:20:01;;;;;;;11.60;6.68;;;;;;;;;;5055206;28;20199;-68
2022/04/29 01:22:30;;;;;;;10.90;6.88;;;;;;;;;;5055053;28;20288;-67
2022/04/29 01:24:58;;;;;;;11.25;7.20;;;;;;;;;;5055479;28;20199;-68
2022/04/29 01:27:25;;;;;;;11.20;7.10;;;;;;;;;;5055123;28;20248;-68
2022/04/29 01:29:56;;;;;;;11.98;6.53;;;;;;;;;;5054840;28;20720;-68
2022/04/29 01:32:23;;;;;;;18.38;7.65;;;;;;;;;;5055137;28;20190;-68
2022/04/29 01:34:50;;;;;;;14.65;7.90;;;;;;;;;;5055100;28;20287;-68
2022/04/29 01:37:18;;;;;;;11.95;7.50;;;;;;;;;;5054721;28;20236;-67
2022/04/29 01:39:46;;;;;;;13.60;8.85;;;;;;;;;;5055180;28;20194;-67
2022/04/29 01:42:13;;;;;;;14.10;8.05;;;;;;;;;;5054462;28;20252;-67
2022/04/29 01:44:41;;;;;;;9.77;7.50;;;;;;;;;;5054399;28;20289;-68
2022/04/29 01:47:08;;;;;;;12.93;7.45;;;;;;;;;;5054745;28;20207;-68
2022/04/29 01:49:35;;;;;;;15.43;8.43;;;;;;;;;;5054829;28;20641;-68
2022/04/29 01:52:02;;;;;;;10.18;7.25;;;;;;;;;;5054963;28;20560;-68
2022/04/29 01:54:29;;;;;;;16.98;9.43;;;;;;;;;;5054791;28;20565;-68
2022/04/29 01:56:58;;;;;;;18.65;7.78;;;;;;;;;;5054638;28;20202;-68
2022/04/29 01:59:25;;;;;;;13.27;8.52;;;;;;;;;;5054599;28;20296;-68
2022/04/29 02:01:52;;;;;;;14.05;8.02;;;;;;;;;;5054609;28;20198;-68
2022/04/29 02:04:19;;;;;;;13.48;8.38;;;;;;;;;;5054130;28;20198;-67
2022/04/29 02:06:47;;;;;;;14.98;8.30;;;;;;;;;;5054051;28;20230;-67
2022/04/29 02:09:14;;;;;;;15.20;8.57;;;;;;;;;;5054465;28;20205;-68
2022/04/29 02:12:03;;;;;;;18.98;9.85;;;;;;;;;;5054868;28;20202;-68
2022/04/29 02:14:30;;;;;;;22.48;9.05;;;;;;;;;;5053928;28;20205;-68
2022/04/29 02:16:58;;;;;;;12.93;8.35;;;;;;;;;;5053908;28;20663;-67
2022/04/29 02:19:27;;;;;;;14.68;8.82;;;;;;;;;;5054242;28;20254;-67
2022/04/29 02:21:54;;;;;;;22.15;9.63;;;;;;;;;;5054521;28;20197;-68
2022/04/29 02:24:21;;;;;;;15.93;8.80;;;;;;;;;;5053901;28;20204;-68
2022/04/29 02:26:48;;;;;;;15.23;8.82;;;;;;;;;;5054201;28;20197;-68
2022/04/29 02:29:15;;;;;;;21.95;8.98;;;;;;;;;;5053771;28;20196;-67
2022/04/29 02:31:44;;;;;;;16.40;9.68;;;;;;;;;;5053585;28;20197;-68
2022/04/29 02:34:11;;;;;;;12.55;9.25;;;;;;;;;;5054027;28;20201;-67
2022/04/29 02:36:40;;;;;;;17.95;9.13;;;;;;;;;;5053758;28;20232;-67
2022/04/29 02:39:08;;;;;;;16.58;9.05;;;;;;;;;;5053627;28;20266;-67
2022/04/29 02:41:35;;;;;;;17.67;9.65;;;;;;;;;;5053437;28;20199;-68
2022/04/29 02:44:02;;;;;;;14.75;8.98;;;;;;;;;;5053483;28;20219;-68
2022/04/29 02:46:30;;;;;;;17.13;8.85;;;;;;;;;;5054397;28;20204;-68
2022/04/29 02:48:58;;;;;;;20.30;10.85;;;;;;;;;;5053338;28;20201;-68
2022/04/29 02:51:25;;;;;;;21.40;9.10;;;;;;;;;;5053734;28;20224;-67
2022/04/29 02:53:53;;;;;;;14.52;9.23;;;;;;;;;;5052929;28;20743;-68
2022/04/29 02:56:20;;;;;;;20.33;9.65;;;;;;;;;;5053704;28;20203;-68
2022/04/29 02:58:47;;;;;;;15.30;9.55;;;;;;;;;;5053580;28;20296;-68
2022/04/29 03:01:15;;;;;;;22.10;9.73;;;;;;;;;;5053602;28;20205;-68
2022/04/29 03:03:42;;;;;;;16.90;10.18;;;;;;;;;;5053139;28;20216;-68
2022/04/29 03:06:11;;;;;;;18.15;9.10;;;;;;;;;;5053221;28;20201;-68
2022/04/29 03:08:38;;;;;;;22.00;10.88;;;;;;;;;;5053081;28;20202;-67
2022/04/29 03:11:05;;;;;;;17.77;9.77;;;;;;;;;;5053735;28;20199;-67
2022/04/29 03:13:32;;;;;;;19.25;10.60;;;;;;;;;;5053592;28;20225;-68
2022/04/29 03:16:00;;;;;;;19.48;10.40;;;;;;;;;;5053472;28;20554;-68
2022/04/29 03:18:27;;;;;;;12.93;9.40;;;;;;;;;;5053339;28;20295;-68
2022/04/29 03:20:56;;;;;;;17.15;9.73;;;;;;;;;;5054293;28;20192;-68
2022/04/29 03:23:25;;;;;;;20.15;12.07;;;;;;;;;;5052907;28;20220;-67
2022/04/29 03:25:52;;;;;;;16.40;9.57;;;;;;;;;;5053822;28;20192;-68
2022/04/29 03:28:19;;;;;;;20.88;10.88;;;;;;;;;;5053300;28;20198;-68
2022/04/29 03:30:47;;;;;;;18.90;10.02;;;;;;;;;;5052989;28;20887;-68
2022/04/29 03:33:14;;;;;;;19.48;9.70;;;;;;;;;;5053521;28;20197;-67
2022/04/29 03:35:42;;;;;;;19.27;11.70;;;;;;;;;;5053627;28;20536;-68
2022/04/29 03:38:09;;;;;;;17.42;10.40;;;;;;;;;;5052744;28;20257;-67
2022/04/29 03:40:38;;;;;;;17.60;10.18;;;;;;;;;;5053270;28;20234;-68
2022/04/29 03:43:05;;;;;;;18.52;10.10;;;;;;;;;;5053091;28;20236;-67
2022/04/29 03:45:33;;;;;;;18.08;10.32;;;;;;;;;;5053256;28;20201;-67
2022/04/29 03:48:00;;;;;;;15.05;9.60;;;;;;;;;;5053213;28;20201;-66
2022/04/29 03:50:28;;;;;;;16.17;9.85;;;;;;;;;;5053566;28;20201;-66
2022/04/29 03:52:56;;;;;;;29.27;10.23;;;;;;;;;;5052724;28;20229;-66
2022/04/29 03:55:23;;;;;;;17.38;10.98;;;;;;;;;;5052246;28;20192;-67
2022/04/29 03:57:53;;;;;;;12.18;9.65;;;;;;;;;;5052254;28;20210;-66
2022/04/29 04:00:21;;;;;;;17.90;10.23;;;;;;;;;;5053045;28;20254;-66
2022/04/29 04:02:48;;;;;;;19.05;10.10;;;;;;;;;;5052391;28;20588;-66
2022/04/29 04:05:15;;;;;;;27.92;10.82;;;;;;;;;;5052744;28;20672;-66
2022/04/29 04:07:42;;;;;;;15.25;9.48;;;;;;;;;;5056270;28;20241;-66
2022/04/29 04:10:09;;;;;;;19.23;10.15;;;;;;;;;;5056405;28;20233;-66
2022/04/29 04:12:40;;;;;;;18.58;10.80;;;;;;;;;;5056351;28;20237;-66
2022/04/29 04:15:10;;;;;;;20.35;10.50;;;;;;;;;;5056726;28;20223;-66
2022/04/29 04:17:37;;;;;;;16.48;10.70;;;;;;;;;;5056143;28;20193;-66
2022/04/29 04:20:05;;;;;;;17.20;9.95;;;;;;;;;;5056565;28;20218;-66
2022/04/29 04:22:35;;;;;;;13.48;8.27;;;;;;;;;;5056531;28;20701;-66
2022/04/29 04:25:02;;;;;;;21.35;11.85;;;;;;;;;;5056283;28;20578;-66
2022/04/29 04:27:30;;;;;;;21.10;11.32;;;;;;;;;;5056588;28;20242;-66
2022/04/29 04:29:57;;;;;;;22.50;10.50;;;;;;;;;;5055930;28;20358;-66
2022/04/29 04:32:26;;;;;;;16.65;9.95;;;;;;;;;;5056874;28;20193;-66
2022/04/29 04:34:54;;;;;;;14.93;9.73;;;;;;;;;;5056175;28;20202;-66
2022/04/29 04:37:21;;;;;;;17.63;9.95;;;;;;;;;;5055670;28;20752;-66
2022/04/29 04:39:49;;;;;;;19.50;10.23;;;;;;;;;;5056026;28;20215;-66
2022/04/29 04:42:17;;;;;;;18.35;10.07;;;;;;;;;;5055725;28;20291;-67
2022/04/29 04:44:44;;;;;;;21.98;9.40;;;;;;;;;;5056183;28;20634;-66
2022/04/29 04:47:12;;;;;;;20.10;10.20;;;;;;;;;;5055991;28;20546;-66
2022/04/29 04:49:40;;;;;;;21.98;11.30;;;;;;;;;;5055797;28;20207;-66
2022/04/29 04:52:08;;;;;;;17.67;9.93;;;;;;;;;;5055586;28;20207;-65
2022/04/29 04:54:35;;;;;;;23.35;10.90;;;;;;;;;;5055648;28;20215;-66
2022/04/29 04:57:02;;;;;;;17.05;11.02;;;;;;;;;;5055425;28;20192;-66
2022/04/29 04:59:30;;;;;;;16.92;10.85;;;;;;;;;;5055713;28;20199;-66
2022/04/29 05:01:57;;;;;;;34.67;12.00;;;;;;;;;;5055497;28;20299;-66
2022/04/29 05:04:24;;;;;;;19.23;11.63;;;;;;;;;;5055236;28;20762;-66
2022/04/29 05:06:53;;;;;;;24.77;10.65;;;;;;;;;;5055320;28;20288;-66
2022/04/29 05:09:21;;;;;;;25.05;11.15;;;;;;;;;;5054814;28;20196;-66
2022/04/29 05:11:48;;;;;;;32.97;9.52;;;;;;;;;;5055676;28;20558;-67
2022/04/29 05:14:15;;;;;;;23.75;12.98;;;;;;;;;;5055068;28;20209;-67
2022/04/29 05:16:42;;;;;;;17.83;9.85;;;;;;;;;;5055488;28;20194;-70
2022/04/29 05:19:10;;;;;;;15.23;11.77;;;;;;;;;;5054551;28;20206;-70
2022/04/29 05:21:37;;;;;;;19.02;9.48;;;;;;;;;;5055474;28;20204;-70
2022/04/29 05:24:06;;;;;;;23.85;10.75;;;;;;;;;;5054883;28;20716;-70
2022/04/29 05:26:33;;;;;;;24.27;12.90;;;;;;;;;;5055277;28;20197;-69
2022/04/29 05:29:01;;;;;;;25.80;11.55;;;;;;;;;;5055928;28;20201;-70
2022/04/29 05:31:28;;;;;;;16.55;10.82;;;;;;;;;;5054914;28;20200;-70
2022/04/29 05:33:56;;;;;;;22.52;12.82;;;;;;;;;;5055255;28;20196;-70
2022/04/29 05:36:23;;;;;;;27.38;15.65;;;;;;;;;;5054978;28;20209;-70
2022/04/29 05:44:24;;;;;;;21.55;12.23;;;;;;;;;;5037061;28;20224;-70
2022/04/29 05:46:51;;;;;;;30.60;11.90;;;;;;;;;;5054827;28;20555;-69
2022/04/29 05:49:18;;;;;;;26.95;10.82;;;;;;;;;;5054863;28;20204;-69
2022/04/29 05:51:46;;;;;;;21.02;10.60;;;;;;;;;;5054894;28;20294;-70
2022/04/29 05:54:13;;;;;;;19.45;10.95;;;;;;;;;;5054677;28;20202;-69
2022/04/29 05:56:42;;;;;;;23.75;11.50;;;;;;;;;;5054919;28;20283;-69
2022/04/29 05:59:09;;;;;;;25.13;9.85;;;;;;;;;;5054575;28;20202;-69
2022/04/29 06:01:36;;;;;;;23.02;12.18;;;;;;;;;;5054297;28;20674;-69
2022/04/29 06:04:03;;;;;;;20.55;10.45;;;;;;;;;;5054152;28;20701;-69
2022/04/29 06:06:31;;;;;;;13.60;9.35;;;;;;;;;;5054035;28;20197;-69
2022/04/29 06:08:59;;;;;;;16.83;10.88;;;;;;;;;;5054239;28;20202;-69
2022/04/29 06:11:26;;;;;;;24.38;11.40;;;;;;;;;;5054380;28;20198;-69
2022/04/29 06:13:55;;;;;;;19.02;11.25;;;;;;;;;;5054292;28;20198;-69
2022/04/29 06:16:22;;;;;;;17.92;9.73;;;;;;;;;;5054320;28;20197;-69
2022/04/29 06:18:49;;;;;;;17.38;9.57;;;;;;;;;;5054008;28;20729;-69
2022/04/29 06:21:18;;;;;;;17.35;9.77;;;;;;;;;;5053870;28;20204;-69
2022/04/29 06:23:45;;;;;;;17.13;8.52;;;;;;;;;;5054108;28;20315;-69
2022/04/29 06:26:12;;;;;;;12.45;9.07;;;;;;;;;;5054174;28;20191;-69
2022/04/29 06:28:39;;;;;;;17.17;9.95;;;;;;;;;;5053991;28;20280;-69
2022/04/29 06:31:08;;;;;;;17.52;9.60;;;;;;;;;;5053646;28;20201;-69
2022/04/29 06:33:36;;;;;;;15.50;9.15;;;;;;;;;;5053748;28;20229;-69
2022/04/29 06:36:05;;;;;;;21.75;8.07;;;;;;;;;;5053474;28;20201;-69
2022/04/29 06:38:33;;;;;;;13.27;8.30;;;;;;;;;;5054232;28;20225;-69
2022/04/29 06:41:00;;;;;;;22.17;9.23;;;;;;;;;;5054192;28;20299;-69
2022/04/29 06:43:29;;;;;;;19.50;8.80;;;;;;;;;;5053614;28;20234;-69
2022/04/29 06:45:57;;;;;;;24.30;9.98;;;;;;;;;;5053415;28;20197;-69
2022/04/29 06:48:25;;;;;;;15.27;9.15;;;;;;;;;;5053846;28;20201;-69
2022/04/29 06:50:52;;;;;;;16.05;8.85;;;;;;;;;;5053339;28;20201;-70
2022/04/29 06:53:20;;;;;;;22.17;10.00;;;;;;;;;;5053455;28;20210;-69
2022/04/29 06:55:47;;;;;;;22.80;9.00;;;;;;;;;;5053643;28;20584;-69
2022/04/29 06:58:14;;;;;;;19.77;9.60;;;;;;;;;;5053707;28;20198;-69
2022/04/29 07:00:43;;;;;;;20.27;9.15;;;;;;;;;;5053294;28;20715;-69
2022/04/29 07:03:10;;;;;;;17.20;8.98;;;;;;;;;;5053586;28;20205;-69
2022/04/29 07:05:41;;;;;;;21.25;10.50;;;;;;;;;;5053429;28;20218;-69
2022/04/29 07:08:09;;;;;;;14.15;7.75;;;;;;;;;;5053326;28;20207;-69
2022/04/29 07:10:36;;;;;;;20.92;9.40;;;;;;;;;;5053145;28;20679;-69
2022/04/29 07:13:04;;;;;;;11.77;7.30;;;;;;;;;;5053518;28;20201;-70
2022/04/29 07:15:31;;;;;;;16.10;9.50;;;;;;;;;;5053455;28;20194;-70
2022/04/29 07:17:58;;;;;;;17.65;7.68;;;;;;;;;;5054049;28;20218;-70
2022/04/29 07:20:25;;;;;;;18.73;7.82;;;;;;;;;;5053359;28;20205;-70
2022/04/29 07:22:54;;;;;;;14.80;8.90;;;;;;;;;;5053220;28;20201;-70
2022/04/29 07:25:23;;;;;;;21.97;8.27;;;;;;;;;;5054069;28;20228;-70
2022/04/29 07:27:50;;;;;;;11.35;8.43;;;;;;;;;;5053408;28;20528;-70
2022/04/29 07:30:17;;;;;;;15.70;8.20;;;;;;;;;;5053037;28;20218;-70
2022/04/29 07:32:44;;;;;;;18.35;9.48;;;;;;;;;;5053305;28;20289;-70
2022/04/29 07:43:27;;;;;;;14.07;8.32;;;;;;;;;;5057085;28;20174;-70
2022/04/29 07:45:54;;;;;;;12.65;8.70;;;;;;;;;;5056748;28;20218;-70
2022/04/29 07:48:23;;;;;;;19.73;9.55;;;;;;;;;;5057003;28;20199;-70
2022/04/29 07:50:50;;;;;;;15.73;9.63;;;;;;;;;;5057053;28;20677;-69
2022/04/29 07:53:19;;;;;;;17.85;9.77;;;;;;;;;;5057132;28;20293;-69
2022/04/29 07:55:46;;;;;;;15.85;10.45;;;;;;;;;;5057323;28;20197;-70
2022/04/29 07:58:14;;;;;;;14.48;9.63;;;;;;;;;;5057129;28;20194;-70
2022/04/29 08:00:43;;;;;;;12.60;7.90;;;;;;;;;;5056785;28;20735;-69
2022/04/29 08:03:10;;;;;;;14.50;8.52;;;;;;;;;;5056784;28;21008;-69
2022/04/29 08:05:37;;;;;;;16.60;9.23;;;;;;;;;;5056701;28;20218;-70
2022/04/29 08:08:05;;;;;;;14.03;8.17;;;;;;;;;;5056291;28;20445;-69
2022/04/29 08:10:34;;;;;;;14.23;7.70;;;;;;;;;;5056063;28;20441;-69
2022/04/29 08:13:01;;;;;;;16.92;9.05;;;;;;;;;;5056604;28;20527;-70
2022/04/29 08:15:28;;;;;;;13.93;8.70;;;;;;;;;;5056326;28;20206;-69
2022/04/29 08:17:57;;;;;;;14.43;7.90;;;;;;;;;;5056313;28;20938;-69
2022/04/29 08:20:25;;;;;;;14.65;8.38;;;;;;;;;;5056622;28;20221;-69
2022/04/29 08:22:52;;;;;;;15.77;7.60;;;;;;;;;;5056366;28;20205;-70
2022/04/29 08:25:20;;;;;;;13.50;8.40;;;;;;;;;;5056103;28;20248;-69
2022/04/29 08:27:50;;;;;;;17.45;8.23;;;;;;;;;;5056372;28;20528;-70
2022/04/29 08:30:22;;;;;;;10.83;7.47;;;;;;;;;;5056435;28;20580;-70
2022/04/29 08:32:50;;;;;;;14.00;7.55;;;;;;;;;;5056524;28;20425;-70
2022/04/29 08:35:18;;;;;;;13.33;8.17;;;;;;;;;;5055966;28;20731;-70
2022/04/29 08:37:45;;;;;;;12.45;7.57;;;;;;;;;;5055980;28;20571;-70
2022/04/29 08:40:13;;;;;;;14.17;7.27;;;;;;;;;;5056635;28;20720;-69
2022/04/29 08:42:41;;;;;;;14.27;10.70;;;;;;;;;;5055731;28;20453;-69
2022/04/29 08:45:11;;;;;;;14.10;8.50;;;;;;;;;;5056013;28;20572;-70
2022/04/29 08:47:39;;;;;;;20.08;8.65;;;;;;;;;;5055685;28;20446;-69
2022/04/29 08:50:07;;;;;;;13.20;7.90;;;;;;;;;;5055719;28;20743;-69
2022/04/29 08:52:35;;;;;;;14.43;7.90;;;;;;;;;;5054990;28;20438;-69
2022/04/29 09:00:33;;;;;;;19.93;9.30;;;;;;;;;;5055717;28;20447;-69
2022/04/29 09:03:02;;;;;;;15.20;8.30;;;;;;;;;;5055712;28;20445;-69
2022/04/29 09:05:29;;;;;;;21.70;9.30;;;;;;;;;;5055638;28;20479;-69
2022/04/29 09:07:59;;;;;;;16.80;9.40;;;;;;;;;;5055177;28;20484;-70
2022/04/29 09:10:28;;;;;;;15.63;10.33;;;;;;;;;;5055958;28;20506;-69
2022/04/29 09:12:55;;;;;;;26.17;9.57;;;;;;;;;;5055571;28;20977;-70
2022/04/29 09:15:23;;;;;;;27.63;10.70;;;;;;;;;;5055898;28;20459;-69
2022/04/29 09:17:53;;;;;;;21.10;9.33;;;;;;;;;;5055785;28;20537;-70
2022/04/29 09:20:21;;;;;;;17.90;9.67;;;;;;;;;;5055858;28;20856;-69
2022/04/29 09:22:49;;;;;;;18.87;10.23;;;;;;;;;;5055279;28;20487;-69
2022/04/29 09:25:17;;;;;;;13.40;9.03;;;;;;;;;;5054910;28;20572;-70
2022/04/29 09:27:58;;;;;;;15.20;9.93;;;;;;;;;;5055328;28;20985;-70
2022/04/29 09:30:37;;;;;;;12.50;9.07;;;;;;;;;;5055025;28;20491;-70
2022/04/29 09:33:06;;;;;;;15.30;9.37;;;;;;;;;;5054970;28;20946;-70
2022/04/29 09:35:37;;;;;;;10.33;8.23;;;;;;;;;;5055016;28;20449;-70
2022/04/29 09:40:49;;;;;;;12.73;11.00;;;;;;;;;;5054969;28;20785;-70
2022/04/29 09:43:16;;;;;;;13.57;9.63;;;;;;;;;;5054941;28;20472;-69
2022/04/29 09:45:43;;;;;;;21.23;10.83;;;;;;;;;;5054873;28;20222;-69
2022/04/29 09:48:12;;;;;;;33.83;19.40;;;;;;;;;;5054859;28;20444;-69
2022/04/29 09:50:47;;;;;;;23.50;11.90;;;;;;;;;;5054937;28;20798;-70
2022/04/29 09:53:18;;;;;;;15.40;10.87;;;;;;;;;;5054741;28;20443;-69
2022/04/29 09:56:05;;;;;;;19.90;9.82;;;;;;;;;;5054949;28;20442;-70
2022/04/29 09:58:32;;;;;;;14.35;11.10;;;;;;;;;;5055115;28;20545;-70
2022/04/29 10:01:00;;;;;;;19.20;12.60;;;;;;;;;;5054632;28;20203;-70
2022/04/29 10:03:29;;;;;;;18.37;10.67;;;;;;;;;;5054463;28;20464;-70
2022/04/29 10:05:57;;;;;;;16.00;12.17;;;;;;;;;;5054168;28;20487;-69
2022/04/29 10:08:26;;;;;;;19.20;12.80;;;;;;;;;;5054629;28;20548;-69
2022/04/29 10:10:55;;;;;;;14.87;11.30;;;;;;;;;;5054156;28;20452;-69
2022/04/29 10:13:24;;;;;;;20.50;12.33;;;;;;;;;;5054066;28;20448;-70
2022/04/29 10:15:52;;;;;;;19.10;12.23;;;;;;;;;;5054056;28;20449;-69
2022/04/29 10:21:18;;;;;;;20.47;13.73;;;;;;;;;;5054149;28;20443;-69
2022/04/29 10:23:48;;;;;;;15.53;12.00;;;;;;;;;;5053963;28;20438;-69
2022/04/29 10:26:17;;;;;;;16.27;12.10;;;;;;;;;;5054314;28;20473;-70
2022/04/29 10:28:44;;;;;;;21.20;12.33;;;;;;;;;;5053793;28;20437;-69
2022/04/29 10:31:17;;;;;;;25.90;12.30;;;;;;;;;;5053805;28;20437;-70
2022/04/29 10:33:45;;;;;;;17.07;12.20;;;;;;;;;;5054040;28;20444;-69
2022/04/29 10:36:15;;;;;;;15.73;11.40;;;;;;;;;;5054044;28;20452;-69
2022/04/29 10:38:46;;;;;;;25.03;14.53;;;;;;;;;;5054164;28;20481;-69
2022/04/29 10:41:14;;;;;;;14.17;10.67;;;;;;;;;;5053622;28;20444;-69
2022/04/29 10:43:42;;;;;;;22.27;13.00;;;;;;;;;;5053752;28;20438;-69
2022/04/29 10:46:19;;;;;;;13.10;10.33;;;;;;;;;;5053885;28;20473;-69
2022/04/29 10:48:47;;;;;;;14.73;10.70;;;;;;;;;;5054154;28;20433;-69
2022/04/29 10:51:18;;;;;;;18.97;12.13;;;;;;;;;;5053728;28;20467;-69
2022/04/29 10:53:46;;;;;;;20.77;11.87;;;;;;;;;;5054057;28;20437;-69
2022/04/29 10:56:32;;;;;;;18.10;11.37;;;;;;;;;;5053335;28;20452;-69
2022/04/29 10:59:00;;;;;;;13.60;9.63;;;;;;;;;;5053875;28;20446;-69
2022/04/29 11:01:31;;;;;;;11.30;8.67;;;;;;;;;;5053183;28;21010;-70
2022/04/29 11:03:58;;;;;;;15.63;9.23;;;;;;;;;;5053292;28;20487;-69
2022/04/29 11:06:36;;;;;;;11.10;8.67;;;;;;;;;;5053391;28;20660;-69
2022/04/29 11:09:26;;;;;;;15.13;9.33;;;;;;;;;;5053699;28;20431;-68
2022/04/29 11:11:56;;;;;;;13.97;9.30;;;;;;;;;;5053932;28;20820;-69
2022/04/29 11:14:31;;;;;;;15.63;10.10;;;;;;;;;;5053732;28;20492;-68
2022/04/29 11:17:10;;;;;;;16.80;10.80;;;;;;;;;;5052770;28;20442;-69
2022/04/29 11:19:45;;;;;;;14.60;9.40;;;;;;;;;;5053107;28;20425;-69
2022/04/29 11:25:04;;;;;;;16.70;10.97;;;;;;;;;;5053055;28;20406;-69
2022/04/29 11:27:33;;;;;;;14.40;9.07;;;;;;;;;;5053773;28;20441;-69
2022/04/29 11:30:02;;;;;;;16.97;9.60;;;;;;;;;;5052903;28;20448;-69
2022/04/29 11:32:30;;;;;;;12.50;8.37;;;;;;;;;;5053759;28;20449;-69
2022/04/29 11:34:58;;;;;;;11.80;9.17;;;;;;;;;;5053558;28;20486;-68
2022/04/29 11:37:27;;;;;;;13.80;8.50;;;;;;;;;;5052926;28;21061;-69
2022/04/29 11:39:56;;;;;;;12.30;8.73;;;;;;;;;;5053128;28;20861;-70
2022/04/29 11:42:24;;;;;;;13.83;8.80;;;;;;;;;;5052926;28;20949;-68
2022/04/29 11:44:51;;;;;;;10.37;8.60;;;;;;;;;;5052810;28;20455;-68
2022/04/29 11:47:24;;;;;;;11.87;8.60;;;;;;;;;;5052802;28;20480;-68
2022/04/29 11:49:51;;;;;;;17.03;8.77;;;;;;;;;;5053597;28;20433;-68
2022/04/29 11:52:18;;;;;;;12.87;9.60;;;;;;;;;;5052798;28;20449;-70
2022/04/29 11:54:54;;;;;;;12.67;9.07;;;;;;;;;;5053113;28;20915;-70
2022/04/29 11:57:21;;;;;;;11.83;9.30;;;;;;;;;;5053585;28;20533;-70
2022/04/29 11:59:48;;;;;;;14.97;8.40;;;;;;;;;;5052974;28;20444;-70
2022/04/29 12:02:18;;;;;;;11.77;8.83;;;;;;;;;;5052361;28;20915;-70
2022/04/29 12:04:55;;;;;;;14.80;10.33;;;;;;;;;;5051604;28;20461;-70
2022/04/29 12:07:22;;;;;;;13.70;8.07;;;;;;;;;;5052422;28;20572;-70
2022/04/29 12:09:50;;;;;;;9.70;7.80;;;;;;;;;;5052534;28;20447;-71
2022/04/29 12:12:25;;;;;;;10.43;8.47;;;;;;;;;;5053016;28;20446;-71
2022/04/29 12:14:52;;;;;;;11.73;8.40;;;;;;;;;;5052799;28;20470;-71
2022/04/29 12:17:19;;;;;;;13.37;8.30;;;;;;;;;;5052759;28;20445;-71
2022/04/29 12:19:56;;;;;;;13.03;9.40;;;;;;;;;;5052879;28;20525;-70
2022/04/29 12:22:30;;;;;;;14.10;9.30;;;;;;;;;;5052715;28;20905;-71
2022/04/29 12:24:57;;;;;;;14.77;8.90;;;;;;;;;;5052843;28;20514;-71
2022/04/29 12:27:32;;;;;;;14.80;8.43;;;;;;;;;;5054341;28;20487;-71
2022/04/29 12:35:30;;;;;;;15.67;9.37;;;;;;;;;;5055283;28;20402;-70
2022/04/29 12:37:57;;;;;;;10.53;9.07;;;;;;;;;;5055379;28;20537;-70
2022/04/29 12:40:29;;;;;;;10.13;9.07;;;;;;;;;;5055955;28;20448;-70
2022/04/29 12:43:11;;;;;;;11.30;8.30;;;;;;;;;;5055899;28;20529;-70
2022/04/29 12:45:38;;;;;;;15.40;8.23;;;;;;;;;;5055861;28;20501;-70
2022/04/29 12:48:06;;;;;;;9.20;8.10;;;;;;;;;;5056151;28;20866;-70
2022/04/29 12:50:36;;;;;;;11.03;8.97;;;;;;;;;;5055586;28;20998;-70
2022/04/29 12:53:05;;;;;;;15.50;9.43;;;;;;;;;;5055759;28;20471;-70
2022/04/29 12:55:33;;;;;;;13.20;9.00;;;;;;;;;;5055408;28;20927;-70
2022/04/29 12:58:04;;;;;;;14.13;9.10;;;;;;;;;;5055932;28;20445;-70
2022/04/29 13:00:33;;;;;;;12.17;8.90;;;;;;;;;;5055426;28;20479;-70
2022/04/29 13:03:04;;;;;;;15.03;9.07;;;;;;;;;;5055275;28;20529;-70
2022/04/29 13:05:32;;;;;;;17.50;9.77;;;;;;;;;;5055724;28;20425;-70
2022/04/29 13:07:59;;;;;;;11.93;8.43;;;;;;;;;;5055228;28;20452;-70
2022/04/29 13:10:31;;;;;;;15.43;9.10;;;;;;;;;;5055332;28;20532;-71
2022/04/29 13:12:59;;;;;;;13.10;9.70;;;;;;;;;;5055350;28;20460;-70
2022/04/29 13:15:26;;;;;;;15.20;9.80;;;;;;;;;;5055335;28;20449;-71
2022/04/29 13:17:58;;;;;;;12.50;8.77;;;;;;;;;;5055153;28;20911;-71
2022/04/29 13:20:26;;;;;;;12.77;10.47;;;;;;;;;;5056312;28;20840;-70
2022/04/29 13:22:53;;;;;;;17.50;10.80;;;;;;;;;;5055733;28;20438;-70
2022/04/29 13:25:21;;;;;;;13.30;11.13;;;;;;;;;;5055227;28;20445;-71
2022/04/29 13:27:48;;;;;;;11.43;10.17;;;;;;;;;;5054974;28;20485;-70
2022/04/29 13:30:15;;;;;;;24.03;17.07;;;;;;;;;;5054966;28;20486;-71
2022/04/29 13:32:42;;;;;;;14.20;12.80;;;;;;;;;;5055228;28;20448;-71
2022/04/29 13:35:11;;;;;;;15.07;13.47;;;;;;;;;;5054675;28;20477;-71
2022/04/29 13:37:39;;;;;;;13.27;11.80;;;;;;;;;;5054598;28;20472;-70
2022/04/29 13:40:08;;;;;;;14.60;13.10;;;;;;;;;;5054052;28;20450;-71
2022/04/29 13:42:36;;;;;;;16.27;11.90;;;;;;;;;;5054031;28;20974;-70
2022/04/29 13:45:03;;;;;;;20.87;13.00;;;;;;;;;;5054999;28;20449;-71
2022/04/29 13:47:32;;;;;;;19.60;12.13;;;;;;;;;;5054651;28;20470;-70
2022/04/29 13:49:59;;;;;;;17.10;12.07;;;;;;;;;;5054778;28;20450;-70
2022/04/29 13:55:18;;;;;;;19.73;11.93;;;;;;;;;;5054537;28;20405;-70
2022/04/29 13:57:45;;;;;;;14.70;12.00;;;;;;;;;;5054052;28;20937;-71
2022/04/29 14:00:14;;;;;;;16.47;11.97;;;;;;;;;;5054569;28;20467;-71
2022/04/29 14:02:41;;;;;;;20.63;12.67;;;;;;;;;;5054448;28;20441;-72
2022/04/29 14:05:09;;;;;;;16.70;13.03;;;;;;;;;;5054714;28;20442;-71
2022/04/29 14:07:37;;;;;;;16.60;14.47;;;;;;;;;;5054474;28;20579;-71
2022/04/29 14:10:06;;;;;;;14.53;12.30;;;;;;;;;;5054387;28;20448;-72
2022/04/29 14:12:35;;;;;;;16.33;13.00;;;;;;;;;;5054540;28;20487;-71
2022/04/29 14:15:03;;;;;;;15.53;13.93;;;;;;;;;;5053782;28;20433;-72
2022/04/29 14:17:31;;;;;;;17.13;12.73;;;;;;;;;;5053820;28;20536;-72
2022/04/29 14:19:58;;;;;;;15.07;13.47;;;;;;;;;;5054340;28;21009;-72
2022/04/29 14:22:25;;;;;;;15.27;11.37;;;;;;;;;;5053789;28;20983;-73
2022/04/29 14:24:53;;;;;;;15.73;12.20;;;;;;;;;;5053978;28;20924;-72
2022/04/29 14:27:20;;;;;;;14.03;12.47;;;;;;;;;;5053353;28;20481;-72
2022/04/29 14:29:49;;;;;;;17.23;12.30;;;;;;;;;;5054072;28;20450;-72
2022/04/29 14:32:16;;;;;;;11.23;10.23;;;;;;;;;;5053832;28;20465;-73
2022/04/29 14:34:45;;;;;;;16.73;12.20;;;;;;;;;;5053797;28;20500;-73
2022/04/29 14:37:13;;;;;;;13.97;12.43;;;;;;;;;;5053184;28;20515;-73
2022/04/29 14:39:40;;;;;;;20.97;12.43;;;;;;;;;;5053334;28;20433;-73
2022/04/29 14:42:08;;;;;;;16.30;10.33;;;;;;;;;;5053448;28;20446;-73
2022/04/29 14:44:35;;;;;;;13.10;10.60;;;;;;;;;;5053447;28;20465;-72
2022/04/29 14:47:05;;;;;;;13.00;11.20;;;;;;;;;;5053570;28;20521;-73
2022/04/29 14:49:32;;;;;;;11.80;9.57;;;;;;;;;;5053254;28;20451;-72
2022/04/29 14:52:00;;;;;;;15.43;9.90;;;;;;;;;;5053691;28;20446;-72
2022/04/29 14:54:27;;;;;;;14.57;11.00;;;;;;;;;;5053786;28;20445;-73
2022/04/29 14:56:54;;;;;;;15.33;11.17;;;;;;;;;;5053753;28;20474;-72
2022/04/29 14:59:22;;;;;;;13.40;10.43;;;;;;;;;;5053443;28;20445;-72
2022/04/29 15:01:51;;;;;;;14.77;10.57;;;;;;;;;;5053617;28;20468;-72
2022/04/29 15:04:20;;;;;;;13.90;9.40;;;;;;;;;;5052999;28;20509;-72
2022/04/29 15:06:47;;;;;;;16.67;9.40;;;;;;;;;;5053011;28;20937;-72
2022/04/29 15:17:28;;;;;;;17.03;11.60;;;;;;;;;;5053106;28;20397;-72